Time;durP1;ratioP1;P1;durP2;ratioP2;P2;SDS_P1;SDS_P2;PMS_P1;PMS_P2;Temp;Humidity;BMP_temperature;BMP_pressure;BME280_temperature;BME280_humidity;BME280_pressure;Samples;Min_cycle;Max_cycle;Signal;HPM_P1;HPM_P2
2022/02/23 00:01:45;;;;;;;13.57;2.85;;;8.00;98.30;;;;;;5091888;28;20491;-67
2022/02/23 00:04:11;;;;;;;21.27;3.25;;;8.00;98.30;;;;;;5092264;28;20028;-67
2022/02/23 00:06:36;;;;;;;20.65;3.65;;;7.90;98.20;;;;;;5091744;28;20036;-67
2022/02/23 00:09:03;;;;;;;31.05;3.00;;;7.90;98.20;;;;;;5090651;28;20035;-67
2022/02/23 00:11:28;;;;;;;7.68;2.40;;;7.90;98.20;;;;;;5074581;28;20059;-67
2022/02/23 00:13:54;;;;;;;22.55;4.15;;;7.90;98.20;;;;;;5085934;28;20532;-67
2022/02/23 00:16:20;;;;;;;11.40;1.38;;;8.00;98.10;;;;;;5091734;28;20036;-67
2022/02/23 00:18:47;;;;;;;7.25;1.88;;;8.00;98.10;;;;;;5086452;28;20111;-67
2022/02/23 00:21:13;;;;;;;25.88;4.70;;;8.00;98.10;;;;;;5078212;28;20390;-67
2022/02/23 00:23:39;;;;;;;17.13;2.58;;;8.00;98.00;;;;;;5095971;28;20032;-67
2022/02/23 00:26:05;;;;;;;24.20;4.18;;;8.00;97.90;;;;;;5095644;28;20043;-67
2022/02/23 00:28:30;;;;;;;13.98;2.22;;;8.00;97.80;;;;;;5094904;28;20040;-67
2022/02/23 00:30:57;;;;;;;14.30;2.95;;;8.00;97.80;;;;;;5095376;28;20043;-67
2022/02/23 00:33:22;;;;;;;12.75;3.45;;;8.00;97.80;;;;;;5095406;28;20383;-67
2022/02/23 00:35:48;;;;;;;11.45;1.73;;;8.00;97.80;;;;;;5095105;28;20032;-67
2022/02/23 00:38:13;;;;;;;15.02;3.10;;;8.00;97.80;;;;;;5083958;28;20071;-67
2022/02/23 00:40:39;;;;;;;9.80;2.38;;;8.00;97.80;;;;;;5093532;28;20505;-67
2022/02/23 00:43:06;;;;;;;13.80;2.75;;;8.00;97.70;;;;;;5082965;28;20025;-67
2022/02/23 00:45:32;;;;;;;15.07;2.22;;;8.00;97.70;;;;;;5088335;28;20036;-67
2022/02/23 00:47:57;;;;;;;18.88;2.50;;;7.90;97.70;;;;;;5086910;28;20032;-67
2022/02/23 00:50:23;;;;;;;25.10;3.63;;;7.90;97.70;;;;;;5088576;28;20101;-67
2022/02/23 00:52:49;;;;;;;11.52;3.22;;;7.80;97.70;;;;;;5088479;28;20472;-67
2022/02/23 00:55:39;;;;;;;25.45;3.80;;;7.90;97.80;;;;;;5094017;28;20043;-66
2022/02/23 00:58:04;;;;;;;16.25;3.63;;;7.80;97.80;;;;;;5091880;28;20020;-67
2022/02/23 01:00:30;;;;;;;16.33;3.35;;;7.80;97.80;;;;;;5085389;28;20040;-67
2022/02/23 01:02:56;;;;;;;11.05;2.47;;;7.80;97.80;;;;;;5080680;28;20066;-66
2022/02/23 01:05:22;;;;;;;25.15;3.22;;;7.80;97.80;;;;;;5095063;28;20062;-67
2022/02/23 01:07:47;;;;;;;11.60;2.80;;;7.70;97.80;;;;;;5094477;28;20031;-67
2022/02/23 01:10:13;;;;;;;19.60;3.35;;;7.80;97.80;;;;;;5094207;28;20040;-67
2022/02/23 01:12:39;;;;;;;24.08;3.83;;;7.70;97.80;;;;;;5094607;28;20028;-67
2022/02/23 01:15:06;;;;;;;18.05;3.03;;;7.70;97.80;;;;;;5094876;28;20021;-67
2022/02/23 01:17:32;;;;;;;16.17;2.97;;;7.70;97.80;;;;;;5094310;28;20027;-67
2022/02/23 01:19:58;;;;;;;10.85;2.58;;;7.70;98.00;;;;;;5093780;28;20680;-67
2022/02/23 01:22:24;;;;;;;20.65;2.20;;;7.70;97.70;;;;;;5081277;28;20439;-67
2022/02/23 01:24:50;;;;;;;13.60;2.92;;;7.60;97.70;;;;;;5093325;28;20032;-67
2022/02/23 01:27:15;;;;;;;10.18;2.65;;;7.70;97.70;;;;;;5093966;28;20118;-67
2022/02/23 01:29:41;;;;;;;15.65;3.00;;;7.70;97.70;;;;;;5081567;28;20020;-67
2022/02/23 01:32:07;;;;;;;16.20;2.28;;;7.70;97.70;;;;;;5093165;28;20040;-67
2022/02/23 01:34:33;;;;;;;10.15;2.35;;;7.60;97.70;;;;;;5094558;28;20032;-67
2022/02/23 01:36:59;;;;;;;20.15;3.22;;;7.60;97.70;;;;;;5094126;28;20126;-67
2022/02/23 01:39:25;;;;;;;11.52;2.58;;;7.60;97.70;;;;;;5093888;28;20046;-67
2022/02/23 01:41:50;;;;;;;11.68;2.35;;;7.60;97.70;;;;;;5094050;28;20031;-67
2022/02/23 01:44:16;;;;;;;11.55;2.95;;;7.60;97.70;;;;;;5094328;28;20027;-67
2022/02/23 01:46:42;;;;;;;8.43;1.77;;;7.60;97.70;;;;;;5093600;28;20028;-67
2022/02/23 01:49:10;;;;;;;16.00;2.50;;;7.60;97.70;;;;;;5085256;28;20373;-67
2022/02/23 01:51:36;;;;;;;9.00;2.05;;;7.60;97.70;;;;;;5083913;28;20036;-67
2022/02/23 01:54:02;;;;;;;14.77;2.35;;;7.60;98.00;;;;;;5093197;28;20464;-67
2022/02/23 01:56:28;;;;;;;13.88;2.65;;;7.60;97.70;;;;;;5093778;28;20141;-67
2022/02/23 01:58:54;;;;;;;20.90;3.72;;;7.60;97.70;;;;;;5075288;28;20062;-67
2022/02/23 02:01:19;;;;;;;16.77;3.30;;;7.50;97.70;;;;;;5093619;28;20036;-66
2022/02/23 02:03:45;;;;;;;15.85;3.00;;;7.50;97.70;;;;;;5093891;28;20118;-67
2022/02/23 02:06:11;;;;;;;11.60;2.90;;;7.50;97.80;;;;;;5093099;28;20077;-67
2022/02/23 02:08:36;;;;;;;12.70;2.38;;;7.50;97.80;;;;;;5092647;28;20028;-67
2022/02/23 02:11:02;;;;;;;14.52;2.47;;;7.50;97.90;;;;;;5093464;28;20040;-67
2022/02/23 02:13:28;;;;;;;10.93;2.28;;;7.40;97.80;;;;;;5091633;28;20036;-67
2022/02/23 02:15:54;;;;;;;23.50;2.67;;;7.40;97.80;;;;;;5093761;28;20111;-67
2022/02/23 02:18:22;;;;;;;10.48;2.85;;;7.40;97.80;;;;;;5087056;28;20025;-67
2022/02/23 02:20:48;;;;;;;10.68;3.13;;;7.40;97.90;;;;;;5072506;28;20029;-67
2022/02/23 02:23:15;;;;;;;14.60;3.08;;;7.40;97.90;;;;;;5086837;28;20067;-67
2022/02/23 02:25:42;;;;;;;12.23;2.60;;;7.40;98.10;;;;;;5085757;28;20050;-67
2022/02/23 02:28:07;;;;;;;8.65;2.25;;;7.40;97.90;;;;;;5092974;28;20027;-67
2022/02/23 02:30:33;;;;;;;13.40;3.13;;;7.30;97.90;;;;;;5093294;28;20036;-67
2022/02/23 02:32:59;;;;;;;20.88;2.83;;;7.30;97.90;;;;;;5093055;28;20028;-66
2022/02/23 02:35:24;;;;;;;26.33;3.45;;;7.30;97.80;;;;;;5092041;28;20111;-67
2022/02/23 02:37:51;;;;;;;11.55;3.30;;;7.30;97.80;;;;;;5081398;28;20395;-67
2022/02/23 02:40:16;;;;;;;11.95;2.63;;;7.30;97.80;;;;;;5086117;28;20027;-67
2022/02/23 02:42:42;;;;;;;12.85;2.72;;;7.30;97.80;;;;;;5089700;28;20458;-67
2022/02/23 02:45:08;;;;;;;15.77;2.05;;;7.30;97.80;;;;;;5087661;28;20029;-67
2022/02/23 02:47:34;;;;;;;13.90;3.38;;;7.30;97.80;;;;;;5092734;28;20190;-67
2022/02/23 02:50:00;;;;;;;13.63;3.00;;;7.20;97.80;;;;;;5083776;28;20119;-67
2022/02/23 02:52:26;;;;;;;17.45;2.30;;;7.20;97.80;;;;;;5074808;28;20387;-67
2022/02/23 02:54:52;;;;;;;7.90;2.15;;;7.20;97.80;;;;;;5083393;28;20476;-67
2022/02/23 02:57:18;;;;;;;6.65;2.22;;;7.20;97.70;;;;;;5086728;28;20067;-67
2022/02/23 02:59:43;;;;;;;7.45;1.70;;;7.20;97.70;;;;;;5079333;28;20028;-67
2022/02/23 03:02:09;;;;;;;10.10;2.78;;;7.20;97.70;;;;;;5091839;28;20052;-67
2022/02/23 03:04:35;;;;;;;16.33;2.88;;;7.20;97.70;;;;;;5078275;28;20035;-67
2022/02/23 03:07:00;;;;;;;11.05;2.90;;;7.20;97.70;;;;;;5092736;28;20028;-67
2022/02/23 03:09:26;;;;;;;12.38;1.40;;;7.20;97.70;;;;;;5084301;28;20038;-66
2022/02/23 03:11:51;;;;;;;12.70;2.70;;;7.20;97.70;;;;;;5091765;28;20067;-67
2022/02/23 03:14:17;;;;;;;7.13;2.08;;;7.20;97.70;;;;;;5090563;28;20016;-67
2022/02/23 03:16:43;;;;;;;20.30;4.00;;;7.10;97.70;;;;;;5088185;28;20446;-67
2022/02/23 03:19:08;;;;;;;13.13;2.55;;;7.10;97.60;;;;;;5091687;28;20016;-67
2022/02/23 03:21:34;;;;;;;17.77;3.05;;;7.10;97.70;;;;;;5091431;28;20383;-66
2022/02/23 03:24:02;;;;;;;19.27;3.33;;;7.10;97.70;;;;;;5085531;28;20170;-72
2022/02/23 03:26:28;;;;;;;12.07;2.60;;;7.10;97.70;;;;;;5091797;28;20024;-67
2022/02/23 03:28:53;;;;;;;8.93;2.38;;;7.00;97.70;;;;;;5091499;28;20099;-66
2022/02/23 03:31:19;;;;;;;21.00;3.20;;;7.00;97.70;;;;;;5088947;28;20169;-67
2022/02/23 03:33:46;;;;;;;13.77;3.30;;;7.00;97.70;;;;;;5101927;28;20391;-67
2022/02/23 03:36:16;;;;;;;13.43;1.95;;;6.90;97.80;;;;;;5100603;28;20024;-67
2022/02/23 03:38:44;;;;;;;19.30;2.60;;;6.90;97.80;;;;;;5095426;28;20062;-67
2022/02/23 03:41:10;;;;;;;22.63;2.60;;;6.90;97.80;;;;;;5089778;28;20020;-69
2022/02/23 03:43:36;;;;;;;15.32;2.90;;;7.00;97.90;;;;;;5076889;28;20040;-67
2022/02/23 03:46:02;;;;;;;9.05;2.47;;;6.90;97.90;;;;;;5080081;28;20031;-67
2022/02/23 03:48:27;;;;;;;13.05;2.60;;;6.90;98.10;;;;;;5095723;28;20107;-67
2022/02/23 03:50:53;;;;;;;17.65;2.30;;;6.90;97.80;;;;;;5090816;28;20043;-67
2022/02/23 03:53:21;;;;;;;19.30;3.15;;;6.90;97.80;;;;;;5087711;28;20024;-67
2022/02/23 03:55:47;;;;;;;14.65;2.65;;;6.90;97.90;;;;;;5096177;28;20100;-66
2022/02/23 03:58:13;;;;;;;9.52;2.70;;;6.90;97.90;;;;;;5096115;28;20028;-66
2022/02/23 04:00:42;;;;;;;17.90;2.90;;;6.90;97.90;;;;;;5095988;28;20097;-66
2022/02/23 04:03:08;;;;;;;17.42;2.80;;;6.90;97.90;;;;;;5082078;28;20052;-66
2022/02/23 04:05:33;;;;;;;14.85;2.08;;;6.90;97.90;;;;;;5095770;28;20139;-66
2022/02/23 04:07:59;;;;;;;10.05;2.15;;;6.90;97.90;;;;;;5089906;28;20047;-66
2022/02/23 04:10:24;;;;;;;14.75;1.67;;;6.90;97.90;;;;;;5095963;28;20508;-66
2022/02/23 04:12:50;;;;;;;8.73;2.08;;;6.90;97.90;;;;;;5081886;28;20100;-66
2022/02/23 04:15:16;;;;;;;11.13;2.53;;;6.90;98.00;;;;;;5096359;28;20028;-66
2022/02/23 04:17:42;;;;;;;12.18;3.47;;;6.90;97.90;;;;;;5095820;28;20020;-66
2022/02/23 04:20:09;;;;;;;16.98;2.70;;;6.90;97.90;;;;;;5095172;28;20036;-66
2022/02/23 04:22:38;;;;;;;11.48;2.90;;;6.90;97.90;;;;;;5082425;28;20117;-66
2022/02/23 04:25:04;;;;;;;6.35;2.03;;;6.90;97.90;;;;;;5095777;28;20032;-66
2022/02/23 04:27:30;;;;;;;13.50;3.40;;;6.90;97.90;;;;;;5081562;28;20497;-66
2022/02/23 04:29:56;;;;;;;8.60;2.70;;;6.90;97.90;;;;;;5094851;28;20032;-65
2022/02/23 04:32:21;;;;;;;8.98;2.28;;;6.90;97.90;;;;;;5095453;28;20028;-66
2022/02/23 04:34:48;;;;;;;6.30;2.60;;;6.90;97.80;;;;;;5095079;28;20024;-65
2022/02/23 04:37:14;;;;;;;18.05;2.83;;;6.80;97.80;;;;;;5082094;28;20028;-66
2022/02/23 04:39:40;;;;;;;12.90;2.80;;;6.80;97.80;;;;;;5098637;28;20041;-66
2022/02/23 04:42:09;;;;;;;13.25;2.55;;;6.80;97.90;;;;;;5095177;28;20031;-66
2022/02/23 04:44:35;;;;;;;8.85;1.88;;;6.90;97.90;;;;;;5095441;28;20028;-66
2022/02/23 04:47:01;;;;;;;8.00;1.40;;;6.80;97.90;;;;;;5095030;28;20024;-66
2022/02/23 04:49:27;;;;;;;12.88;2.22;;;6.80;97.90;;;;;;5093402;28;20120;-66
2022/02/23 04:51:53;;;;;;;15.38;2.90;;;6.80;97.90;;;;;;5095100;28;20126;-66
2022/02/23 04:54:18;;;;;;;15.70;1.88;;;6.80;97.90;;;;;;5088280;28;20076;-66
2022/02/23 04:56:44;;;;;;;9.23;2.28;;;6.80;97.80;;;;;;5087250;28;20085;-66
2022/02/23 04:59:10;;;;;;;11.38;2.88;;;6.80;97.90;;;;;;5086608;28;20435;-66
2022/02/23 05:01:35;;;;;;;7.20;1.77;;;6.80;97.80;;;;;;5088563;28;20051;-65
2022/02/23 05:04:01;;;;;;;9.18;2.15;;;6.80;97.80;;;;;;5095086;28;20542;-66
2022/02/23 05:06:26;;;;;;;8.07;1.75;;;6.80;97.80;;;;;;5094955;28;20391;-65
2022/02/23 05:08:52;;;;;;;15.13;2.83;;;6.80;97.80;;;;;;5094469;28;20016;-66
2022/02/23 05:11:17;;;;;;;14.70;3.70;;;6.80;97.80;;;;;;5094504;28;20471;-65
2022/02/23 05:13:43;;;;;;;17.40;3.17;;;6.80;97.80;;;;;;5095025;28;20028;-66
2022/02/23 05:16:09;;;;;;;11.77;2.55;;;6.80;97.80;;;;;;5093825;28;20024;-66
2022/02/23 05:18:34;;;;;;;3.50;1.67;;;6.70;97.80;;;;;;5094853;28;20042;-65
2022/02/23 05:21:00;;;;;;;7.85;3.22;;;6.70;97.80;;;;;;5094466;28;20036;-65
2022/02/23 05:23:28;;;;;;;9.80;3.20;;;6.70;97.80;;;;;;5094457;28;20121;-66
2022/02/23 05:25:56;;;;;;;4.95;2.25;;;6.70;97.80;;;;;;5094400;28;20039;-66
2022/02/23 05:28:22;;;;;;;15.75;2.35;;;6.70;97.80;;;;;;5094295;28;20039;-65
2022/02/23 05:30:48;;;;;;;6.20;1.33;;;6.70;97.80;;;;;;5089857;28;20036;-66
2022/02/23 05:33:13;;;;;;;28.85;2.50;;;6.70;97.80;;;;;;5085155;28;20027;-66
2022/02/23 05:35:40;;;;;;;1.08;0.98;;;6.80;97.80;;;;;;5094320;28;20036;-66
2022/02/23 05:38:06;;;;;;;8.68;1.80;;;6.80;97.80;;;;;;5085554;28;20020;-66
2022/02/23 05:40:33;;;;;;;0.75;0.75;;;6.80;97.70;;;;;;5082849;28;20032;-65
2022/02/23 05:42:58;;;;;;;12.52;2.38;;;6.80;97.70;;;;;;5082397;28;20036;-66
2022/02/23 05:45:24;;;;;;;14.43;2.17;;;6.80;97.70;;;;;;5091804;28;20031;-66
2022/02/23 05:47:50;;;;;;;3.63;1.50;;;6.80;97.60;;;;;;5092485;28;20024;-66
2022/02/23 05:50:15;;;;;;;6.93;2.47;;;6.80;97.50;;;;;;5093856;28;20090;-66
2022/02/23 05:52:41;;;;;;;8.23;2.22;;;6.70;97.60;;;;;;5073171;28;20033;-66
2022/02/23 05:55:08;;;;;;;3.50;1.45;;;6.70;97.60;;;;;;5073679;28;20021;-66
2022/02/23 05:57:34;;;;;;;18.35;2.80;;;6.70;97.60;;;;;;5087362;28;20036;-66
2022/02/23 06:00:00;;;;;;;7.55;1.88;;;6.60;97.60;;;;;;5074487;28;20178;-66
2022/02/23 06:02:28;;;;;;;6.15;1.60;;;6.60;97.60;;;;;;5093929;28;20083;-66
2022/02/23 06:04:54;;;;;;;14.57;2.13;;;6.60;97.60;;;;;;5093127;28;20028;-67
2022/02/23 06:07:20;;;;;;;5.68;2.35;;;6.60;97.60;;;;;;5093862;28;20502;-66
2022/02/23 06:09:46;;;;;;;8.52;2.47;;;6.60;97.60;;;;;;5093143;28;20042;-67
2022/02/23 06:12:11;;;;;;;8.02;2.13;;;6.60;97.60;;;;;;5093033;28;20150;-67
2022/02/23 06:14:37;;;;;;;11.43;2.30;;;6.60;97.60;;;;;;5093390;28;20024;-67
2022/02/23 06:17:03;;;;;;;15.25;2.63;;;6.50;97.70;;;;;;5093902;28;20477;-67
2022/02/23 06:19:29;;;;;;;20.75;2.50;;;6.50;97.70;;;;;;5092931;28;20560;-67
2022/02/23 06:21:55;;;;;;;15.35;2.40;;;6.50;97.80;;;;;;5093642;28;20490;-67
2022/02/23 06:24:21;;;;;;;9.98;1.80;;;6.50;97.80;;;;;;5093141;28;20024;-66
2022/02/23 06:26:47;;;;;;;10.80;3.33;;;6.40;97.80;;;;;;5092948;28;20439;-67
2022/02/23 06:29:13;;;;;;;6.43;1.85;;;6.50;97.90;;;;;;5093164;28;20028;-67
2022/02/23 06:31:38;;;;;;;10.73;2.15;;;6.40;97.90;;;;;;5093390;28;20126;-67
2022/02/23 06:34:04;;;;;;;6.85;2.65;;;6.40;97.90;;;;;;5088095;28;20499;-67
2022/02/23 06:36:29;;;;;;;10.10;2.00;;;6.40;98.00;;;;;;5084189;28;20491;-66
2022/02/23 06:38:55;;;;;;;13.90;1.58;;;6.40;98.00;;;;;;5081325;28;20085;-67
2022/02/23 06:41:24;;;;;;;11.23;2.38;;;6.40;98.00;;;;;;5084248;28;20133;-67
2022/02/23 06:43:53;;;;;;;15.70;1.85;;;6.40;98.00;;;;;;5093019;28;20052;-67
2022/02/23 06:46:20;;;;;;;15.15;2.40;;;6.40;98.10;;;;;;5093183;28;20032;-67
2022/02/23 06:48:46;;;;;;;6.30;1.65;;;6.30;98.10;;;;;;5090902;28;20130;-67
2022/02/23 06:51:18;;;;;;;6.53;2.05;;;6.30;98.10;;;;;;5093162;28;20068;-67
2022/02/23 06:53:45;;;;;;;20.45;2.42;;;6.30;98.10;;;;;;5092659;28;20028;-67
2022/02/23 06:56:12;;;;;;;14.32;2.10;;;6.30;98.20;;;;;;5092439;28;20387;-67
2022/02/23 06:58:46;;;;;;;18.02;2.47;;;6.30;98.10;;;;;;5092528;28;20170;-67
2022/02/23 07:01:15;;;;;;;14.52;2.47;;;6.30;98.10;;;;;;5092052;28;20471;-67
2022/02/23 07:03:40;;;;;;;12.80;2.38;;;6.30;98.10;;;;;;5087831;28;20060;-67
2022/02/23 07:06:07;;;;;;;7.60;2.25;;;6.30;98.10;;;;;;5084439;28;20024;-67
2022/02/23 07:08:32;;;;;;;8.10;2.35;;;6.40;98.10;;;;;;5091779;28;20098;-67
2022/02/23 07:10:58;;;;;;;5.00;2.03;;;6.30;98.10;;;;;;5080463;28;20539;-67
2022/02/23 07:13:23;;;;;;;9.57;2.38;;;6.30;98.10;;;;;;5091322;28;20052;-67
2022/02/23 07:15:49;;;;;;;8.25;1.60;;;6.30;98.10;;;;;;5092021;28;20036;-67
2022/02/23 07:18:15;;;;;;;12.50;2.20;;;6.30;98.10;;;;;;5092630;28;20028;-67
2022/02/23 07:20:40;;;;;;;8.50;1.95;;;6.30;98.10;;;;;;5092220;28;20077;-66
2022/02/23 07:23:09;;;;;;;6.93;2.40;;;6.40;98.10;;;;;;5091246;28;20454;-67
2022/02/23 07:25:35;;;;;;;15.57;3.28;;;6.30;98.10;;;;;;5092317;28;20036;-67
2022/02/23 07:28:00;;;;;;;13.23;2.13;;;6.30;98.10;;;;;;5092566;28;20031;-67
2022/02/23 07:30:26;;;;;;;2.75;1.38;;;6.40;98.10;;;;;;5091846;28;20047;-67
2022/02/23 07:32:53;;;;;;;7.30;3.08;;;6.40;98.10;;;;;;5089817;28;20031;-67
2022/02/23 07:35:18;;;;;;;4.10;2.20;;;6.40;98.10;;;;;;5088996;28;20039;-67
2022/02/23 07:37:46;;;;;;;8.93;2.00;;;6.40;98.10;;;;;;5087349;28;20032;-67
2022/02/23 07:40:14;;;;;;;7.82;1.65;;;6.40;98.10;;;;;;5088023;28;20035;-67
2022/02/23 07:42:41;;;;;;;9.10;1.95;;;6.40;98.20;;;;;;5089193;28;20122;-67
2022/02/23 07:45:08;;;;;;;4.88;1.52;;;6.40;98.20;;;;;;5087498;28;20485;-68
2022/02/23 07:47:34;;;;;;;12.55;2.38;;;6.40;98.20;;;;;;5090145;28;20028;-70
2022/02/23 07:50:00;;;;;;;9.10;2.63;;;6.40;98.20;;;;;;5091316;28;20107;-70
2022/02/23 07:52:29;;;;;;;12.18;2.78;;;6.30;98.30;;;;;;5091578;28;20028;-67
2022/02/23 07:54:55;;;;;;;12.90;2.60;;;6.30;98.40;;;;;;5091131;28;20043;-67
2022/02/23 07:57:21;;;;;;;9.10;1.90;;;6.40;98.40;;;;;;5091150;28;20036;-69
2022/02/23 07:59:46;;;;;;;11.82;3.13;;;6.30;98.40;;;;;;5091355;28;20038;-69
2022/02/23 08:02:14;;;;;;;16.58;2.78;;;6.40;98.50;;;;;;5088532;28;20422;-68
2022/02/23 08:04:40;;;;;;;9.80;2.90;;;6.40;98.50;;;;;;5088851;28;20043;-69
2022/02/23 08:07:06;;;;;;;14.52;2.67;;;6.40;98.50;;;;;;5087298;28;20119;-69
2022/02/23 08:09:31;;;;;;;15.40;3.25;;;6.40;98.50;;;;;;5087703;28;20047;-67
2022/02/23 08:11:57;;;;;;;19.00;3.35;;;6.40;98.60;;;;;;5091083;28;20040;-66
2022/02/23 08:14:24;;;;;;;11.98;1.95;;;6.40;98.60;;;;;;5077789;28;20020;-67
2022/02/23 08:19:34;;;;;;;12.15;2.33;;;6.50;98.70;;;;;;5079385;28;20032;-67
2022/02/23 08:22:03;;;;;;;14.68;3.42;;;6.40;98.70;;;;;;5090626;28;20040;-66
2022/02/23 08:24:29;;;;;;;11.30;3.22;;;6.50;98.80;;;;;;5089605;28;20028;-66
2022/02/23 08:26:56;;;;;;;13.90;2.67;;;6.50;98.80;;;;;;5086196;28;20032;-67
2022/02/23 08:29:25;;;;;;;8.32;2.05;;;6.50;98.90;;;;;;5082922;28;20024;-66
2022/02/23 08:31:51;;;;;;;10.77;2.33;;;6.60;98.90;;;;;;5087205;28;20044;-66
2022/02/23 08:34:17;;;;;;;14.10;2.60;;;6.60;98.90;;;;;;5092184;28;20127;-68
2022/02/23 08:36:44;;;;;;;6.53;1.67;;;6.60;98.90;;;;;;5071352;28;20059;-71
2022/02/23 08:39:11;;;;;;;9.13;2.65;;;6.60;99.00;;;;;;5090646;28;20024;-69
2022/02/23 08:41:36;;;;;;;8.15;2.75;;;6.60;99.00;;;;;;5091407;28;20038;-70
2022/02/23 08:44:06;;;;;;;3.95;1.75;;;6.70;99.00;;;;;;5090656;28;20032;-69
2022/02/23 08:46:37;;;;;;;9.35;2.70;;;6.70;99.10;;;;;;5088736;28;20038;-68
2022/02/23 08:49:04;;;;;;;10.55;2.78;;;6.70;99.20;;;;;;5091813;28;20357;-71
2022/02/23 08:51:30;;;;;;;11.48;2.50;;;6.70;99.20;;;;;;5092970;28;20463;-70
2022/02/23 08:53:56;;;;;;;13.93;2.63;;;6.70;99.30;;;;;;5092843;28;20210;-71
2022/02/23 08:56:23;;;;;;;9.07;1.98;;;6.70;99.30;;;;;;5090361;28;20542;-68
2022/02/23 08:58:49;;;;;;;10.68;2.15;;;6.80;99.30;;;;;;5093156;28;20069;-67
2022/02/23 09:01:15;;;;;;;14.55;3.03;;;6.80;99.30;;;;;;5089375;28;20036;-67
2022/02/23 09:03:43;;;;;;;17.17;2.95;;;6.80;99.40;;;;;;5092872;28;20083;-67
2022/02/23 09:06:10;;;;;;;9.88;2.55;;;6.80;99.40;;;;;;5092975;28;20417;-68
2022/02/23 09:08:36;;;;;;;12.43;3.35;;;6.90;99.50;;;;;;5094399;28;20028;-68
2022/02/23 09:11:01;;;;;;;19.00;2.70;;;6.90;99.60;;;;;;5083776;28;20049;-68
2022/02/23 09:13:27;;;;;;;17.40;3.17;;;6.90;99.60;;;;;;5074273;28;20389;-68
2022/02/23 09:15:52;;;;;;;8.95;2.05;;;7.00;99.60;;;;;;5089414;28;20035;-68
2022/02/23 09:18:18;;;;;;;13.88;2.53;;;7.00;99.60;;;;;;5093907;28;20783;-68
2022/02/23 09:20:44;;;;;;;11.40;2.22;;;7.00;99.70;;;;;;5093596;28;20472;-68
2022/02/23 09:23:09;;;;;;;21.30;3.53;;;7.00;99.80;;;;;;5093173;28;20064;-68
2022/02/23 09:25:35;;;;;;;13.40;2.20;;;7.10;99.80;;;;;;5093447;28;20039;-66
2022/02/23 09:28:01;;;;;;;12.35;2.60;;;7.10;99.90;;;;;;5093130;28;20065;-66
2022/02/23 09:30:27;;;;;;;22.10;4.45;;;7.10;99.90;;;;;;5092905;28;20050;-66
2022/02/23 09:32:54;;;;;;;15.98;2.95;;;7.20;99.90;;;;;;5093308;28;20024;-66
2022/02/23 09:35:21;;;;;;;10.05;2.60;;;7.20;99.90;;;;;;5092026;28;20534;-66
2022/02/23 09:37:47;;;;;;;10.85;3.10;;;7.30;99.90;;;;;;5090699;28;20036;-67
2022/02/23 09:40:17;;;;;;;21.67;3.53;;;7.30;99.90;;;;;;5087637;28;20041;-66
2022/02/23 09:42:43;;;;;;;9.90;1.27;;;7.30;99.90;;;;;;5088197;28;20036;-67
2022/02/23 09:45:09;;;;;;;12.60;2.70;;;7.40;99.90;;;;;;5088938;28;20078;-68
2022/02/23 09:47:35;;;;;;;10.02;2.75;;;7.30;99.90;;;;;;5086384;28;20028;-67
2022/02/23 09:50:05;;;;;;;13.32;2.55;;;7.50;99.90;;;;;;5086320;28;20020;-67
2022/02/23 09:52:31;;;;;;;16.15;2.25;;;7.40;99.90;;;;;;5086652;28;20114;-67
2022/02/23 09:54:58;;;;;;;14.13;2.88;;;7.50;99.90;;;;;;5091531;28;20099;-67
2022/02/23 09:57:25;;;;;;;6.95;2.20;;;7.50;99.90;;;;;;5090644;28;20028;-67
2022/02/23 09:59:51;;;;;;;12.88;3.05;;;7.60;99.90;;;;;;5089906;28;20040;-67
2022/02/23 10:02:16;;;;;;;15.23;3.30;;;7.60;99.90;;;;;;5083051;28;20040;-67
2022/02/23 10:04:42;;;;;;;14.50;3.00;;;7.60;99.90;;;;;;5090613;28;20407;-67
2022/02/23 10:07:08;;;;;;;9.68;2.13;;;7.60;99.90;;;;;;5089136;28;20036;-67
2022/02/23 10:09:47;;;;;;;9.27;2.20;;;7.70;99.90;;;;;;5086459;28;20557;-67
2022/02/23 10:12:17;;;;;;;13.73;2.72;;;7.80;99.90;;;;;;5087509;28;21364;-68
2022/02/23 10:14:43;;;;;;;8.68;2.55;;;7.80;99.90;;;;;;5088441;28;20035;-67
2022/02/23 10:17:09;;;;;;;13.20;2.97;;;7.80;99.90;;;;;;5085385;28;20036;-68
2022/02/23 10:19:36;;;;;;;9.82;3.47;;;7.90;99.90;;;;;;5085580;28;20027;-68
2022/02/23 10:22:04;;;;;;;9.90;2.17;;;7.90;99.90;;;;;;5085358;28;20082;-68
2022/02/23 10:24:39;;;;;;;16.92;2.83;;;7.90;99.90;;;;;;5084506;28;20104;-66
2022/02/23 10:27:13;;;;;;;8.07;2.25;;;8.00;99.90;;;;;;5088387;28;20020;-65
2022/02/23 10:29:49;;;;;;;10.82;2.85;;;8.00;99.90;;;;;;5084133;28;20062;-65
2022/02/23 10:32:15;;;;;;;13.98;2.67;;;8.00;99.90;;;;;;5084062;28;20131;-65
2022/02/23 10:34:46;;;;;;;18.05;2.65;;;8.00;99.90;;;;;;5083139;28;20036;-66
2022/02/23 10:37:15;;;;;;;14.13;2.50;;;8.10;99.90;;;;;;5085008;28;20063;-67
2022/02/23 10:39:42;;;;;;;16.50;3.05;;;8.10;99.90;;;;;;5085399;28;20484;-67
2022/02/23 10:42:10;;;;;;;8.90;2.13;;;8.10;99.90;;;;;;5087281;28;20040;-68
2022/02/23 10:44:41;;;;;;;18.55;2.47;;;8.20;99.90;;;;;;5087266;28;20028;-67
2022/02/23 10:47:08;;;;;;;9.18;2.63;;;8.20;99.90;;;;;;5087203;28;20557;-68
2022/02/23 10:49:33;;;;;;;6.57;2.10;;;8.20;99.90;;;;;;5087638;28;20118;-68
2022/02/23 10:52:06;;;;;;;10.73;2.35;;;8.20;99.90;;;;;;5091404;28;20119;-68
2022/02/23 10:54:34;;;;;;;5.25;1.75;;;8.20;99.90;;;;;;5079259;28;20090;-68
2022/02/23 10:57:16;;;;;;;11.60;2.10;;;8.30;99.90;;;;;;5079255;28;20039;-68
2022/02/23 10:59:41;;;;;;;11.80;2.55;;;8.30;99.90;;;;;;5092198;28;20424;-68
2022/02/23 11:02:08;;;;;;;7.25;2.63;;;8.30;99.90;;;;;;5091951;28;20056;-67
2022/02/23 11:04:34;;;;;;;9.10;1.88;;;8.40;99.90;;;;;;5092831;28;20031;-67
2022/02/23 11:07:00;;;;;;;8.18;2.28;;;8.40;99.90;;;;;;5092222;28;20487;-68
2022/02/23 11:09:26;;;;;;;9.95;2.10;;;8.50;99.90;;;;;;5088866;28;20036;-67
2022/02/23 11:11:52;;;;;;;14.85;2.10;;;8.50;99.90;;;;;;5078722;28;20040;-68
2022/02/23 11:14:19;;;;;;;3.05;1.20;;;8.60;99.90;;;;;;5089937;28;20173;-68
2022/02/23 11:16:46;;;;;;;7.70;1.80;;;8.60;99.90;;;;;;5084892;28;20128;-65
2022/02/23 11:19:16;;;;;;;7.10;1.77;;;8.70;99.90;;;;;;5087106;28;20463;-65
2022/02/23 11:21:43;;;;;;;9.73;1.92;;;8.70;99.90;;;;;;5088636;28;20484;-66
2022/02/23 11:24:09;;;;;;;14.93;2.97;;;8.70;99.90;;;;;;5084690;28;20079;-65
2022/02/23 11:26:38;;;;;;;6.13;2.03;;;8.70;99.90;;;;;;5086470;28;20492;-65
2022/02/23 11:29:33;;;;;;;10.43;2.10;;;8.70;99.90;;;;;;5079943;28;20035;-66
2022/02/23 11:32:03;;;;;;;12.18;2.13;;;8.80;99.90;;;;;;5087875;28;20132;-68
2022/02/23 11:34:29;;;;;;;14.43;2.20;;;8.90;99.90;;;;;;5087650;28;20028;-67
2022/02/23 11:36:55;;;;;;;6.53;2.17;;;9.00;99.90;;;;;;5085761;28;20024;-67
2022/02/23 11:39:33;;;;;;;6.00;2.13;;;9.00;99.80;;;;;;5088057;28;20039;-67
2022/02/23 11:42:03;;;;;;;14.45;2.88;;;9.10;99.80;;;;;;5085993;28;20064;-67
2022/02/23 11:44:32;;;;;;;6.65;1.85;;;9.10;99.60;;;;;;5087233;28;20046;-67
2022/02/23 11:47:13;;;;;;;5.05;1.60;;;9.10;99.60;;;;;;5088948;28;20029;-67
2022/02/23 11:49:57;;;;;;;8.45;2.08;;;9.20;99.80;;;;;;5073586;28;20040;-67
2022/02/23 11:52:31;;;;;;;10.52;2.20;;;9.20;99.60;;;;;;5082195;28;20036;-67
2022/02/23 11:55:17;;;;;;;11.45;2.17;;;9.20;99.50;;;;;;5085245;28;20115;-67
2022/02/23 11:57:59;;;;;;;6.10;2.00;;;9.30;99.50;;;;;;5087560;28;20036;-66
2022/02/23 12:00:30;;;;;;;11.32;2.13;;;9.30;99.50;;;;;;5086863;28;20044;-70
2022/02/23 12:03:11;;;;;;;7.82;2.42;;;9.40;99.50;;;;;;5086635;28;20048;-67
2022/02/23 12:05:39;;;;;;;6.32;1.88;;;9.40;99.40;;;;;;5085933;28;20067;-66
2022/02/23 12:08:07;;;;;;;12.13;2.45;;;9.40;99.50;;;;;;5087519;28;20024;-67
2022/02/23 12:10:33;;;;;;;7.63;1.88;;;9.50;99.50;;;;;;5087935;28;20036;-67
2022/02/23 12:13:00;;;;;;;8.65;2.00;;;9.50;99.30;;;;;;5091955;28;20032;-67
2022/02/23 12:15:35;;;;;;;13.00;2.47;;;9.70;99.40;;;;;;5086694;28;20369;-67
2022/02/23 12:18:07;;;;;;;10.45;2.30;;;9.70;99.40;;;;;;5090188;28;20097;-67
2022/02/23 12:20:36;;;;;;;6.20;2.25;;;9.70;99.50;;;;;;5092308;28;20032;-67
2022/02/23 12:23:06;;;;;;;6.68;1.70;;;9.80;99.50;;;;;;5088898;28;20028;-67
2022/02/23 12:25:46;;;;;;;9.20;2.53;;;9.90;99.60;;;;;;5080125;28;20063;-67
2022/02/23 12:28:13;;;;;;;8.25;1.90;;;9.90;99.50;;;;;;5094367;28;20044;-67
2022/02/23 12:30:40;;;;;;;15.25;2.63;;;9.90;99.20;;;;;;5093975;28;20051;-67
2022/02/23 12:33:15;;;;;;;9.25;2.55;;;9.90;99.10;;;;;;5086688;28;20043;-67
2022/02/23 12:35:44;;;;;;;10.15;2.30;;;10.00;99.20;;;;;;5090991;28;20436;-68
2022/02/23 12:38:10;;;;;;;8.10;2.15;;;10.00;99.00;;;;;;5061998;28;20025;-67
2022/02/23 12:40:37;;;;;;;14.82;2.63;;;10.00;99.20;;;;;;5095793;28;20035;-66
2022/02/23 12:43:09;;;;;;;4.63;1.67;;;10.10;99.10;;;;;;5093462;28;20036;-67
2022/02/23 12:45:52;;;;;;;11.65;1.98;;;10.10;99.20;;;;;;5088878;28;20020;-66
2022/02/23 12:48:23;;;;;;;12.02;2.42;;;10.20;99.20;;;;;;5087424;28;20067;-66
2022/02/23 12:50:55;;;;;;;10.30;2.33;;;10.30;99.00;;;;;;5091229;28;20491;-66
2022/02/23 12:53:34;;;;;;;10.32;2.00;;;10.40;98.80;;;;;;5093689;28;20031;-66